• Join FlightAware (Why Join?)
  • Login
  • US Flag 
03:56PM EDT


 

Airport Tracker/Info


-or-


 

Live Flight TrackerFlight Track Log ✈ N488CP ✈ 26-Jun-2013 ✈ KAWO - KSMF

Flight Track Log - Related Links

Times and Time Zones

All times are in EDT time to prevent confusion due to time zone crossing. See the N488CP flight status page for this flight to view local times or setup timezone preferences in your user account.

Time Position Orientation Groundspeed Altitude Reporting Facility
EDT Latitude Longitude Course Direction KTS MPH feet Rate Location/Type
11:28PM 48.0947 -122.1481 173° South 206 237 4,400  Level Seattle Center
11:29PM 48.0272 -122.1361 173° South 205 236 9,100 3,420 Climbing Seattle Center
11:30PM 47.9636 -122.1219 172° South 266 306 11,700 1,440 Climbing Seattle Center
11:31PM 47.8597 -122.1108 176° South 313 360 12,400 1,200 Climbing Seattle Center
11:32PM 47.7572 -122.1022 177° South 317 365 14,600 1,980 Climbing Seattle Center
11:33PM 47.6647 -122.0919 176° South 334 384 16,500 1,860 Climbing Seattle Center
11:34PM 47.5647 -122.0817 176° South 344 396 18,400 1,860 Climbing Seattle Center
11:35PM 47.4681 -122.0708 176° South 347 399 20,300 1,860 Climbing Seattle Center
11:36PM 47.3731 -122.0403 168° South 351 404 22,200 1,860 Climbing Seattle Center
11:37PM 47.2794 -122.0075 167° South 350 403 24,200 1,860 Climbing Seattle Center
11:38PM 47.1872 -121.9764 167° South 343 395 26,100 1,860 Climbing Seattle Center
11:39PM 47.0978 -121.9458 167° South 335 386 28,000 1,860 Climbing Seattle Center
11:40PM 47.0108 -121.9161 167° South 325 374 29,900 1,860 Climbing Seattle Center
11:41PM 46.9261 -121.8886 168° South 316 364 31,800 1,740 Climbing Seattle Center
11:42PM 46.8450 -121.8619 167° South 304 350 33,500 1,800 Climbing Seattle Center
11:43PM 46.7486 -121.8292 167° South 299 344 35,500 1,380 Climbing Seattle Center
11:44PM 46.6686 -121.8019 167° South 299 344 36,400 780 Climbing Seattle Center
11:46PM 46.5822 -121.7733 167° South 319 367 37,100 960 Climbing Seattle Center
11:47PM 46.4958 -121.7436 167° South 324 373 38,400 1,200 Climbing Seattle Center
11:48PM 46.4089 -121.7161 168° South 323 372 39,600 1,140 Climbing Seattle Center
11:49PM 46.3264 -121.6881 167° South 312 359 40,800 660 Climbing Seattle Center
11:50PM 46.2419 -121.6619 168° South 313 360 41,000 60 Climbing Seattle Center
11:51PM 46.1489 -121.6297 167° South 337 388 41,000  Level Seattle Center
11:52PM 46.0519 -121.5986 167° South 355 409 41,000  Level Seattle Center
11:53PM 45.9328 -121.5583 167° South 367 422 41,000  Level Seattle Center
11:54PM 45.8319 -121.5253 167° South 373 429 41,000  Level Seattle Center
11:55PM 45.7306 -121.4933 168° South 376 433 41,000  Level Seattle Center
11:56PM 45.6283 -121.4611 168° South 377 434 41,000  Level Seattle Center
11:57PM 45.5247 -121.4264 167° South 383 441 41,000  Level Seattle Center
11:58PM 45.4208 -121.3947 168° South 385 443 41,000  Level Seattle Center
11:59PM 45.3172 -121.3603 167° South 386 444 41,000  Level Seattle Center
12:00AM 45.2122 -121.3278 168° South 388 447 41,000  Level Seattle Center
12:01AM 45.1075 -121.2944 167° South 388 447 41,000  Level Seattle Center
12:02AM 45.0033 -121.2608 167° South 387 445 41,000  Level Seattle Center
12:03AM 44.8783 -121.2217 167° South 384 442 41,000  Level Seattle Center
12:04AM 44.7731 -121.1892 168° South 386 444 41,000  Level Seattle Center
12:05AM 44.6706 -121.1581 168° South 381 438 41,000  Level Seattle Center
12:06AM 44.5794 -121.1294 167° South 381 438 41,000  Level Seattle Center
12:07AM 44.4536 -121.0900 167° South 386 444 41,000  Level Seattle Center
12:08AM 44.3594 -121.0600 167° South 384 442 41,000  Level Seattle Center
12:09AM 44.2519 -121.0247 167° South 399 459 41,000  Level Seattle Center
12:10AM 44.1458 -120.9944 168° South 393 452 41,000  Level Seattle Center
12:11AM 44.0422 -120.9644 168° South 385 443 41,000  Level Seattle Center
12:12AM 43.9372 -120.9328 168° South 387 445 41,000  Level Seattle Center
12:13AM 43.8314 -120.8972 166° South 390 449 41,000  Level Seattle Center
12:14AM 43.7044 -120.8764 173° South 389 448 41,000  Level Seattle Center
12:15AM 43.6050 -120.9011 190° South 371 427 41,000  Level Seattle Center
12:16AM 43.5125 -120.9208 189° South 371 427 41,000  Level Seattle Center
12:17AM 43.4108 -120.9403 188° South 370 426 41,000  Level Seattle Center
12:18AM 43.3094 -120.9592 188° South 368 423 41,000  Level Seattle Center
12:19AM 43.1872 -120.9828 188° South 369 425 41,000  Level Seattle Center
12:20AM 43.0853 -121.0022 188° South 369 425 41,000  Level Seattle Center
12:21AM 42.9808 -121.0208 187° South 376 433 41,000  Level Seattle Center
12:22AM 42.8786 -121.0408 188° South 373 429 41,000  Level Seattle Center
12:23AM 42.7756 -121.0600 188° South 373 429 41,000  Level Seattle Center
12:24AM 42.6736 -121.0800 188° South 370 426 41,000  Level Seattle Center
12:25AM 42.5700 -121.0992 188° South 373 429 41,000  Level Seattle Center
12:26AM 42.4667 -121.1181 188° South 372 428 41,000  Level Seattle Center
12:27AM 42.3639 -121.1367 188° South 373 429 41,000  Level Seattle Center
12:28AM 42.2606 -121.1556 188° South 372 428 41,000  Level Seattle Center
12:29AM 42.1558 -121.1769 189° South 380 437 41,000  Level Seattle Center
12:30AM 42.0511 -121.1947 187° South 373 429 41,000  Level Seattle Center
12:31AM 41.9481 -121.2125 187° South 373 429 41,000  Level Seattle Center
12:32AM 41.8439 -121.2317 188° South 378 435 41,000  Level Seattle Center
12:33AM 41.7183 -121.2547 188° South 378 435 41,000  Level Seattle Center
12:34AM 41.6136 -121.2744 188° South 379 436 41,000  Level Seattle Center
12:35AM 41.5097 -121.2886 186° South 375 432 41,000 -300 Level Seattle Center
12:36AM 41.4083 -121.3014 185° South 367 422 40,400 -720 Descending Seattle Center
12:37AM 41.3450 -121.2981 178° South 369 425 39,800 -1,560 Descending Oakland Center
12:38AM 41.2192 -121.2750 172° South 379 436 37,700 -1,800 Descending Oakland Center
12:39AM 41.1147 -121.2589 173° South 377 434 36,200 -1,380 Descending Oakland Center
12:40AM 41.0147 -121.2772 188° South 378 435 34,900 -1,380 Descending Oakland Center
12:41AM 40.9081 -121.2933 187° South 380 437 33,400 -1,500 Descending Oakland Center
12:42AM 40.7964 -121.3100 186° South 388 447 31,900 -1,380 Descending Oakland Center
12:43AM 40.6867 -121.3283 187° South 396 456 30,600 -1,500 Descending Oakland Center
12:44AM 40.5747 -121.3464 187° South 403 464 28,900 -1,620 Descending Oakland Center
12:45AM 40.4672 -121.3639 187° South 400 460 27,400 -1,500 Descending Oakland Center
12:46AM 40.3600 -121.3817 187° South 388 447 25,900 -1,680 Descending Oakland Center
12:47AM 40.2314 -121.4019 187° South 381 438 24,000 -1,980 Descending Oakland Center
12:48AM 40.1242 -121.4183 187° South 385 443 21,900 -1,920 Descending Oakland Center
12:49AM 40.0242 -121.4347 187° South 364 419 20,200 -1,620 Descending Oakland Center
12:50AM 39.9219 -121.4503 187° South 367 422 18,700 -1,500 Descending Oakland Center
12:51AM 39.8194 -121.4661 187° South 369 425 17,200 -1,620 Descending Oakland Center
12:52AM 39.7194 -121.4811 187° South 362 417 15,500 -1,680 Descending Oakland Center
12:53AM 39.6225 -121.4958 187° South 353 406 13,800 -1,740 Descending Oakland Center
12:54AM 39.5258 -121.5111 187° South 350 403 12,000 -1,920 Descending Oakland Center
12:55AM 39.4258 -121.5272 187° South 329 379 9,900 -2,040 Descending Oakland Center
12:56AM 39.3456 -121.5397 187° South 297 342 7,900 -1,680 Descending Oakland Center
12:57AM 39.2728 -121.5508 187° South 269 310 6,600 -1,140 Descending Oakland Center
12:59AM 39.2000 -121.5622 187° South 266 306 5,600 -720 Descending Oakland Center
01:00AM 39.0833 -121.5833 188° South 207 238 4,600 -900 Descending Northern Cal TRACON
01:01AM 39.0167 -121.5833 180° South 213 245 3,200 -840 Descending Northern Cal TRACON
01:02AM 38.9667 -121.6000 195° South 189 217 3,000 -120 Descending Northern Cal TRACON
01:03AM 38.9333 -121.6500 229° Southwest 198 228 3,000  Level Northern Cal TRACON
01:04AM 38.9000 -121.6167 142° Southeast 147 169 3,000 -60 Level Northern Cal TRACON
01:05AM 38.8667 -121.6000 159° South 141 162 2,900 -480 Descending Northern Cal TRACON
01:06AM 38.8167 -121.6000 180° South 149 171 2,100 -780 Descending Northern Cal TRACON
01:07AM 38.7833 -121.6000 180° South 126 145 1,400 -660 Descending Northern Cal TRACON
01:08AM 38.7500 -121.6000 180° South 127 146 800 -600 Descending Northern Cal TRACON
01:09AM 38.7167 -121.6000 180° South 121 139 200 -600 Descending Northern Cal TRACON
01:11AM 38.6954 -121.5908 180° South  Level Estimated
01:18AM 38.6954 -121.5908 180° South  Level Estimated